Terminal Aerodrome Forecast
Issued by NWS Wilmington, NC

Home | Current Version | Previous Version | Text Only | Print | Product List | Glossary On
Versions: 1 2 3 4 5 6 7 8 9 10 11 12 13 14 15 16 17 18 19
000
FTUS42 KILM 172300
TAFMYR
TAF
KMYR 172330Z 1800/1824 00000KT P6SM BKN250
     FM180900 35004KT P6SM FEW040 BKN250
     FM181400 02008KT P6SM SCT140 BKN250
      AMD LTD TO CLD VIS AND WIND 1804/1811=

USA.gov is the U.S. government's official web portal to all federal, state and local government web resources and services.